sensor_id;sensor_type;location;lat;lon;timestamp;P1;durP1;ratioP1;P2;durP2;ratioP2
15192;SDS011;7697;51.630;7.484;2022-09-27T00:01:46;4.75;;;2.65;;
15192;SDS011;7697;51.630;7.484;2022-09-27T00:06:48;4.93;;;2.13;;
15192;SDS011;7697;51.630;7.484;2022-09-27T00:11:50;5.85;;;2.00;;
15192;SDS011;7697;51.630;7.484;2022-09-27T00:16:53;5.07;;;1.85;;
15192;SDS011;7697;51.630;7.484;2022-09-27T00:21:55;4.22;;;1.83;;
15192;SDS011;7697;51.630;7.484;2022-09-27T00:26:57;2.63;;;1.30;;
15192;SDS011;7697;51.630;7.484;2022-09-27T00:32:00;1.90;;;1.20;;
15192;SDS011;7697;51.630;7.484;2022-09-27T00:37:02;3.55;;;1.48;;
15192;SDS011;7697;51.630;7.484;2022-09-27T00:42:04;2.60;;;1.50;;
15192;SDS011;7697;51.630;7.484;2022-09-27T00:47:09;2.15;;;1.33;;
15192;SDS011;7697;51.630;7.484;2022-09-27T00:52:15;3.08;;;1.33;;
15192;SDS011;7697;51.630;7.484;2022-09-27T00:57:21;2.15;;;1.38;;
15192;SDS011;7697;51.630;7.484;2022-09-27T01:02:25;2.60;;;1.30;;
15192;SDS011;7697;51.630;7.484;2022-09-27T01:07:27;4.25;;;1.60;;
15192;SDS011;7697;51.630;7.484;2022-09-27T01:12:30;3.30;;;1.48;;
15192;SDS011;7697;51.630;7.484;2022-09-27T01:17:44;2.35;;;1.30;;
15192;SDS011;7697;51.630;7.484;2022-09-27T01:23:02;3.22;;;1.33;;
15192;SDS011;7697;51.630;7.484;2022-09-27T01:28:21;2.85;;;1.50;;
15192;SDS011;7697;51.630;7.484;2022-09-27T01:33:41;7.65;;;1.58;;
15192;SDS011;7697;51.630;7.484;2022-09-27T01:38:50;2.88;;;1.40;;
15192;SDS011;7697;51.630;7.484;2022-09-27T01:44:05;2.90;;;1.77;;
15192;SDS011;7697;51.630;7.484;2022-09-27T01:49:17;3.00;;;1.58;;
15192;SDS011;7697;51.630;7.484;2022-09-27T01:54:24;4.45;;;1.80;;
15192;SDS011;7697;51.630;7.484;2022-09-27T01:59:34;3.65;;;1.70;;
15192;SDS011;7697;51.630;7.484;2022-09-27T02:04:44;1.95;;;1.73;;
15192;SDS011;7697;51.630;7.484;2022-09-27T02:09:50;3.03;;;2.00;;
15192;SDS011;7697;51.630;7.484;2022-09-27T02:14:58;2.58;;;2.00;;
15192;SDS011;7697;51.630;7.484;2022-09-27T02:20:09;2.38;;;1.70;;
15192;SDS011;7697;51.630;7.484;2022-09-27T02:25:17;3.60;;;2.17;;
15192;SDS011;7697;51.630;7.484;2022-09-27T02:30:24;2.90;;;1.88;;
15192;SDS011;7697;51.630;7.484;2022-09-27T02:35:27;4.25;;;1.80;;
15192;SDS011;7697;51.630;7.484;2022-09-27T02:40:34;3.50;;;1.80;;
15192;SDS011;7697;51.630;7.484;2022-09-27T02:45:39;2.85;;;2.10;;
15192;SDS011;7697;51.630;7.484;2022-09-27T02:51:03;2.08;;;1.83;;
15192;SDS011;7697;51.630;7.484;2022-09-27T02:56:14;4.55;;;2.10;;
15192;SDS011;7697;51.630;7.484;2022-09-27T03:01:26;1.92;;;1.73;;
15192;SDS011;7697;51.630;7.484;2022-09-27T03:06:37;1.92;;;1.80;;
15192;SDS011;7697;51.630;7.484;2022-09-27T03:11:41;3.47;;;2.55;;
15192;SDS011;7697;51.630;7.484;2022-09-27T03:16:43;4.72;;;2.42;;
15192;SDS011;7697;51.630;7.484;2022-09-27T03:21:46;3.63;;;2.20;;
15192;SDS011;7697;51.630;7.484;2022-09-27T03:26:48;3.85;;;2.10;;
15192;SDS011;7697;51.630;7.484;2022-09-27T03:31:49;2.60;;;2.10;;
15192;SDS011;7697;51.630;7.484;2022-09-27T03:36:53;3.20;;;2.00;;
15192;SDS011;7697;51.630;7.484;2022-09-27T03:41:54;3.88;;;2.00;;
15192;SDS011;7697;51.630;7.484;2022-09-27T03:46:57;2.25;;;1.92;;
15192;SDS011;7697;51.630;7.484;2022-09-27T03:52:01;2.80;;;1.73;;
15192;SDS011;7697;51.630;7.484;2022-09-27T03:57:03;4.38;;;2.28;;
15192;SDS011;7697;51.630;7.484;2022-09-27T04:02:05;3.38;;;2.33;;
15192;SDS011;7697;51.630;7.484;2022-09-27T04:07:08;2.55;;;1.77;;
15192;SDS011;7697;51.630;7.484;2022-09-27T04:12:10;2.22;;;2.03;;
15192;SDS011;7697;51.630;7.484;2022-09-27T04:17:11;3.97;;;1.90;;
15192;SDS011;7697;51.630;7.484;2022-09-27T04:22:15;4.50;;;1.88;;
15192;SDS011;7697;51.630;7.484;2022-09-27T04:27:16;5.40;;;2.15;;
15192;SDS011;7697;51.630;7.484;2022-09-27T04:32:18;3.00;;;1.98;;
15192;SDS011;7697;51.630;7.484;2022-09-27T04:37:21;2.63;;;2.10;;
15192;SDS011;7697;51.630;7.484;2022-09-27T04:42:23;3.72;;;2.10;;
15192;SDS011;7697;51.630;7.484;2022-09-27T04:47:28;2.13;;;1.80;;
15192;SDS011;7697;51.630;7.484;2022-09-27T04:52:31;4.18;;;2.30;;
15192;SDS011;7697;51.630;7.484;2022-09-27T04:57:33;3.35;;;2.75;;
15192;SDS011;7697;51.630;7.484;2022-09-27T05:02:35;4.75;;;3.85;;
15192;SDS011;7697;51.630;7.484;2022-09-27T05:07:38;5.90;;;5.07;;
15192;SDS011;7697;51.630;7.484;2022-09-27T05:12:40;6.25;;;5.25;;
15192;SDS011;7697;51.630;7.484;2022-09-27T05:17:42;5.88;;;5.28;;
15192;SDS011;7697;51.630;7.484;2022-09-27T05:22:46;5.35;;;4.85;;
15192;SDS011;7697;51.630;7.484;2022-09-27T05:27:48;5.50;;;4.70;;
15192;SDS011;7697;51.630;7.484;2022-09-27T05:32:50;5.95;;;4.32;;
15192;SDS011;7697;51.630;7.484;2022-09-27T05:37:55;7.70;;;5.78;;
15192;SDS011;7697;51.630;7.484;2022-09-27T05:42:57;6.82;;;6.20;;
15192;SDS011;7697;51.630;7.484;2022-09-27T05:47:59;8.70;;;7.68;;
15192;SDS011;7697;51.630;7.484;2022-09-27T05:53:02;8.02;;;6.90;;
15192;SDS011;7697;51.630;7.484;2022-09-27T05:58:05;8.82;;;7.93;;
15192;SDS011;7697;51.630;7.484;2022-09-27T06:03:09;9.48;;;7.38;;
15192;SDS011;7697;51.630;7.484;2022-09-27T06:08:14;8.80;;;6.13;;
15192;SDS011;7697;51.630;7.484;2022-09-27T06:13:16;7.88;;;4.70;;
15192;SDS011;7697;51.630;7.484;2022-09-27T06:18:18;5.05;;;4.07;;
15192;SDS011;7697;51.630;7.484;2022-09-27T06:23:21;4.38;;;3.60;;
15192;SDS011;7697;51.630;7.484;2022-09-27T06:28:24;4.32;;;3.45;;
15192;SDS011;7697;51.630;7.484;2022-09-27T06:33:26;5.90;;;4.15;;
15192;SDS011;7697;51.630;7.484;2022-09-27T06:38:29;7.22;;;4.70;;
15192;SDS011;7697;51.630;7.484;2022-09-27T06:43:32;6.47;;;4.60;;
15192;SDS011;7697;51.630;7.484;2022-09-27T06:48:34;9.45;;;7.00;;
15192;SDS011;7697;51.630;7.484;2022-09-27T06:53:38;7.38;;;5.53;;
15192;SDS011;7697;51.630;7.484;2022-09-27T06:58:40;7.07;;;5.80;;
15192;SDS011;7697;51.630;7.484;2022-09-27T07:03:59;7.40;;;4.95;;
15192;SDS011;7697;51.630;7.484;2022-09-27T07:09:03;9.20;;;7.97;;
15192;SDS011;7697;51.630;7.484;2022-09-27T07:14:06;7.43;;;5.78;;
15192;SDS011;7697;51.630;7.484;2022-09-27T07:19:09;5.63;;;4.50;;
15192;SDS011;7697;51.630;7.484;2022-09-27T07:24:14;8.20;;;4.78;;
15192;SDS011;7697;51.630;7.484;2022-09-27T07:29:16;5.75;;;3.03;;
15192;SDS011;7697;51.630;7.484;2022-09-27T07:34:18;8.73;;;5.82;;
15192;SDS011;7697;51.630;7.484;2022-09-27T07:39:21;6.32;;;3.13;;
15192;SDS011;7697;51.630;7.484;2022-09-27T07:44:23;6.05;;;2.60;;
15192;SDS011;7697;51.630;7.484;2022-09-27T07:49:26;3.70;;;2.60;;
15192;SDS011;7697;51.630;7.484;2022-09-27T07:54:29;3.63;;;2.13;;
15192;SDS011;7697;51.630;7.484;2022-09-27T07:59:31;3.78;;;1.90;;
15192;SDS011;7697;51.630;7.484;2022-09-27T08:04:32;3.05;;;1.27;;
15192;SDS011;7697;51.630;7.484;2022-09-27T08:09:36;3.42;;;1.60;;
15192;SDS011;7697;51.630;7.484;2022-09-27T08:14:37;3.47;;;1.60;;
15192;SDS011;7697;51.630;7.484;2022-09-27T08:19:39;3.63;;;1.73;;
15192;SDS011;7697;51.630;7.484;2022-09-27T08:24:45;2.90;;;2.15;;
15192;SDS011;7697;51.630;7.484;2022-09-27T08:29:47;5.85;;;2.40;;
15192;SDS011;7697;51.630;7.484;2022-09-27T08:34:49;3.42;;;2.05;;
15192;SDS011;7697;51.630;7.484;2022-09-27T08:39:52;3.35;;;2.30;;
15192;SDS011;7697;51.630;7.484;2022-09-27T08:44:56;5.15;;;2.58;;
15192;SDS011;7697;51.630;7.484;2022-09-27T08:50:05;3.53;;;2.10;;
15192;SDS011;7697;51.630;7.484;2022-09-27T08:55:21;5.50;;;2.35;;
15192;SDS011;7697;51.630;7.484;2022-09-27T09:00:29;5.80;;;1.95;;
15192;SDS011;7697;51.630;7.484;2022-09-27T09:05:32;2.95;;;2.45;;
15192;SDS011;7697;51.630;7.484;2022-09-27T09:10:42;3.72;;;2.38;;
15192;SDS011;7697;51.630;7.484;2022-09-27T09:16:10;3.75;;;2.30;;
15192;SDS011;7697;51.630;7.484;2022-09-27T09:21:23;2.88;;;2.40;;
15192;SDS011;7697;51.630;7.484;2022-09-27T09:26:36;2.83;;;2.50;;
15192;SDS011;7697;51.630;7.484;2022-09-27T09:31:44;3.28;;;2.95;;
15192;SDS011;7697;51.630;7.484;2022-09-27T09:36:53;5.15;;;3.67;;
15192;SDS011;7697;51.630;7.484;2022-09-27T09:42:06;4.40;;;3.63;;
15192;SDS011;7697;51.630;7.484;2022-09-27T09:47:24;3.95;;;3.47;;
15192;SDS011;7697;51.630;7.484;2022-09-27T09:52:35;3.20;;;2.90;;
15192;SDS011;7697;51.630;7.484;2022-09-27T09:57:45;3.90;;;3.08;;
15192;SDS011;7697;51.630;7.484;2022-09-27T10:03:03;3.70;;;2.80;;
15192;SDS011;7697;51.630;7.484;2022-09-27T10:08:06;4.78;;;2.88;;
15192;SDS011;7697;51.630;7.484;2022-09-27T10:13:18;4.75;;;2.30;;
15192;SDS011;7697;51.630;7.484;2022-09-27T10:18:21;3.42;;;2.00;;
15192;SDS011;7697;51.630;7.484;2022-09-27T10:23:25;4.20;;;1.92;;
15192;SDS011;7697;51.630;7.484;2022-09-27T10:28:29;2.47;;;1.67;;
15192;SDS011;7697;51.630;7.484;2022-09-27T10:33:33;2.95;;;1.80;;
15192;SDS011;7697;51.630;7.484;2022-09-27T10:38:38;2.65;;;1.80;;
15192;SDS011;7697;51.630;7.484;2022-09-27T10:43:41;2.47;;;1.90;;
15192;SDS011;7697;51.630;7.484;2022-09-27T10:48:43;2.42;;;2.00;;
15192;SDS011;7697;51.630;7.484;2022-09-27T10:53:45;2.33;;;1.90;;
15192;SDS011;7697;51.630;7.484;2022-09-27T10:58:49;3.20;;;1.90;;
15192;SDS011;7697;51.630;7.484;2022-09-27T11:03:52;3.88;;;2.53;;
15192;SDS011;7697;51.630;7.484;2022-09-27T11:09:08;3.67;;;2.10;;
15192;SDS011;7697;51.630;7.484;2022-09-27T11:14:24;3.47;;;2.15;;
15192;SDS011;7697;51.630;7.484;2022-09-27T11:25:09;3.15;;;2.05;;
15192;SDS011;7697;51.630;7.484;2022-09-27T11:30:20;2.67;;;2.00;;
15192;SDS011;7697;51.630;7.484;2022-09-27T11:35:29;2.20;;;2.00;;
15192;SDS011;7697;51.630;7.484;2022-09-27T11:40:44;2.30;;;2.10;;
15192;SDS011;7697;51.630;7.484;2022-09-27T11:46:05;3.17;;;2.70;;
15192;SDS011;7697;51.630;7.484;2022-09-27T11:51:23;2.75;;;2.55;;
15192;SDS011;7697;51.630;7.484;2022-09-27T11:56:34;2.72;;;2.53;;
15192;SDS011;7697;51.630;7.484;2022-09-27T12:01:47;3.35;;;2.65;;
15192;SDS011;7697;51.630;7.484;2022-09-27T12:06:55;3.25;;;2.50;;
15192;SDS011;7697;51.630;7.484;2022-09-27T12:12:08;2.50;;;2.30;;
15192;SDS011;7697;51.630;7.484;2022-09-27T12:17:17;3.72;;;2.42;;
15192;SDS011;7697;51.630;7.484;2022-09-27T12:22:22;2.65;;;2.20;;
15192;SDS011;7697;51.630;7.484;2022-09-27T12:27:31;2.80;;;2.15;;
15192;SDS011;7697;51.630;7.484;2022-09-27T12:32:41;1.83;;;1.65;;
15192;SDS011;7697;51.630;7.484;2022-09-27T12:37:51;2.80;;;1.90;;
15192;SDS011;7697;51.630;7.484;2022-09-27T12:43:01;2.85;;;2.20;;
15192;SDS011;7697;51.630;7.484;2022-09-27T12:48:10;2.70;;;2.13;;
15192;SDS011;7697;51.630;7.484;2022-09-27T12:53:23;5.18;;;1.80;;
15192;SDS011;7697;51.630;7.484;2022-09-27T12:58:32;4.20;;;1.73;;
15192;SDS011;7697;51.630;7.484;2022-09-27T13:04:06;2.60;;;1.70;;
15192;SDS011;7697;51.630;7.484;2022-09-27T13:09:31;2.60;;;1.80;;
15192;SDS011;7697;51.630;7.484;2022-09-27T13:14:59;1.85;;;1.40;;
15192;SDS011;7697;51.630;7.484;2022-09-27T13:25:46;1.73;;;1.33;;
15192;SDS011;7697;51.630;7.484;2022-09-27T13:30:50;1.50;;;1.23;;
15192;SDS011;7697;51.630;7.484;2022-09-27T13:36:05;2.70;;;2.20;;
15192;SDS011;7697;51.630;7.484;2022-09-27T13:41:19;1.65;;;1.40;;
15192;SDS011;7697;51.630;7.484;2022-09-27T13:46:22;3.05;;;1.60;;
15192;SDS011;7697;51.630;7.484;2022-09-27T13:51:33;1.98;;;1.40;;
15192;SDS011;7697;51.630;7.484;2022-09-27T13:56:50;1.85;;;1.50;;
15192;SDS011;7697;51.630;7.484;2022-09-27T14:01:55;3.15;;;1.40;;
15192;SDS011;7697;51.630;7.484;2022-09-27T14:07:07;2.40;;;1.40;;
15192;SDS011;7697;51.630;7.484;2022-09-27T14:12:15;2.88;;;1.33;;
15192;SDS011;7697;51.630;7.484;2022-09-27T14:17:19;1.30;;;1.20;;
15192;SDS011;7697;51.630;7.484;2022-09-27T14:22:23;2.58;;;1.60;;
15192;SDS011;7697;51.630;7.484;2022-09-27T14:27:25;1.98;;;1.33;;
15192;SDS011;7697;51.630;7.484;2022-09-27T14:32:28;1.70;;;1.17;;
15192;SDS011;7697;51.630;7.484;2022-09-27T14:37:34;1.30;;;1.10;;
15192;SDS011;7697;51.630;7.484;2022-09-27T14:42:36;1.13;;;0.90;;
15192;SDS011;7697;51.630;7.484;2022-09-27T14:47:43;1.63;;;1.00;;
15192;SDS011;7697;51.630;7.484;2022-09-27T14:52:48;2.08;;;1.40;;
15192;SDS011;7697;51.630;7.484;2022-09-27T14:57:55;2.78;;;1.25;;
15192;SDS011;7697;51.630;7.484;2022-09-27T15:02:58;2.78;;;1.20;;
15192;SDS011;7697;51.630;7.484;2022-09-27T15:08:05;1.70;;;1.17;;
15192;SDS011;7697;51.630;7.484;2022-09-27T15:13:13;1.67;;;1.30;;
15192;SDS011;7697;51.630;7.484;2022-09-27T15:18:37;1.65;;;1.17;;
15192;SDS011;7697;51.630;7.484;2022-09-27T15:23:43;1.75;;;1.20;;
15192;SDS011;7697;51.630;7.484;2022-09-27T15:28:46;4.38;;;1.30;;
15192;SDS011;7697;51.630;7.484;2022-09-27T15:33:51;2.13;;;1.20;;
15192;SDS011;7697;51.630;7.484;2022-09-27T15:39:05;1.15;;;0.95;;
15192;SDS011;7697;51.630;7.484;2022-09-27T15:44:18;2.60;;;1.30;;
15192;SDS011;7697;51.630;7.484;2022-09-27T15:49:36;1.48;;;0.90;;
15192;SDS011;7697;51.630;7.484;2022-09-27T15:54:39;1.20;;;0.80;;
15192;SDS011;7697;51.630;7.484;2022-09-27T15:59:41;1.75;;;0.90;;
15192;SDS011;7697;51.630;7.484;2022-09-27T16:04:42;1.63;;;1.08;;
15192;SDS011;7697;51.630;7.484;2022-09-27T16:09:46;0.80;;;0.80;;
15192;SDS011;7697;51.630;7.484;2022-09-27T16:14:50;1.02;;;0.93;;
15192;SDS011;7697;51.630;7.484;2022-09-27T16:19:52;1.60;;;1.17;;
15192;SDS011;7697;51.630;7.484;2022-09-27T16:24:55;1.85;;;1.20;;
15192;SDS011;7697;51.630;7.484;2022-09-27T16:29:56;3.28;;;1.10;;
15192;SDS011;7697;51.630;7.484;2022-09-27T16:34:58;1.48;;;1.10;;
15192;SDS011;7697;51.630;7.484;2022-09-27T16:40:01;3.20;;;1.20;;
15192;SDS011;7697;51.630;7.484;2022-09-27T16:45:04;2.72;;;1.10;;
15192;SDS011;7697;51.630;7.484;2022-09-27T16:50:08;3.00;;;1.67;;
15192;SDS011;7697;51.630;7.484;2022-09-27T16:55:31;2.55;;;1.48;;
15192;SDS011;7697;51.630;7.484;2022-09-27T17:00:33;2.28;;;1.88;;
15192;SDS011;7697;51.630;7.484;2022-09-27T17:05:35;4.97;;;3.15;;
15192;SDS011;7697;51.630;7.484;2022-09-27T17:10:42;2.53;;;1.88;;
15192;SDS011;7697;51.630;7.484;2022-09-27T17:15:45;2.45;;;1.55;;
15192;SDS011;7697;51.630;7.484;2022-09-27T17:20:47;2.47;;;1.50;;
15192;SDS011;7697;51.630;7.484;2022-09-27T17:25:51;2.38;;;1.50;;
15192;SDS011;7697;51.630;7.484;2022-09-27T17:31:03;1.63;;;1.20;;
15192;SDS011;7697;51.630;7.484;2022-09-27T17:36:07;3.80;;;1.67;;
15192;SDS011;7697;51.630;7.484;2022-09-27T17:41:13;2.25;;;1.38;;
15192;SDS011;7697;51.630;7.484;2022-09-27T17:46:17;4.85;;;1.80;;
15192;SDS011;7697;51.630;7.484;2022-09-27T17:51:20;4.10;;;2.10;;
15192;SDS011;7697;51.630;7.484;2022-09-27T17:56:23;6.80;;;1.90;;
15192;SDS011;7697;51.630;7.484;2022-09-27T18:01:25;4.90;;;1.90;;
15192;SDS011;7697;51.630;7.484;2022-09-27T18:06:27;3.60;;;1.63;;
15192;SDS011;7697;51.630;7.484;2022-09-27T18:11:30;5.03;;;2.40;;
15192;SDS011;7697;51.630;7.484;2022-09-27T18:16:33;3.63;;;2.42;;
15192;SDS011;7697;51.630;7.484;2022-09-27T18:21:38;5.18;;;2.80;;
15192;SDS011;7697;51.630;7.484;2022-09-27T18:26:41;3.30;;;1.75;;
15192;SDS011;7697;51.630;7.484;2022-09-27T18:31:45;4.78;;;2.30;;
15192;SDS011;7697;51.630;7.484;2022-09-27T18:36:47;3.47;;;1.98;;
15192;SDS011;7697;51.630;7.484;2022-09-27T18:41:51;4.57;;;2.53;;
15192;SDS011;7697;51.630;7.484;2022-09-27T18:46:54;5.18;;;2.92;;
15192;SDS011;7697;51.630;7.484;2022-09-27T18:51:57;4.57;;;2.65;;
15192;SDS011;7697;51.630;7.484;2022-09-27T18:57:00;2.67;;;2.00;;
15192;SDS011;7697;51.630;7.484;2022-09-27T19:02:01;6.05;;;2.67;;
15192;SDS011;7697;51.630;7.484;2022-09-27T19:07:03;5.78;;;3.67;;
15192;SDS011;7697;51.630;7.484;2022-09-27T19:12:08;3.38;;;2.30;;
15192;SDS011;7697;51.630;7.484;2022-09-27T19:17:10;3.38;;;1.92;;
15192;SDS011;7697;51.630;7.484;2022-09-27T19:22:11;3.03;;;2.25;;
15192;SDS011;7697;51.630;7.484;2022-09-27T19:27:15;4.38;;;2.63;;
15192;SDS011;7697;51.630;7.484;2022-09-27T19:32:16;4.47;;;2.97;;
15192;SDS011;7697;51.630;7.484;2022-09-27T19:37:18;6.00;;;2.70;;
15192;SDS011;7697;51.630;7.484;2022-09-27T19:42:21;4.18;;;3.10;;
15192;SDS011;7697;51.630;7.484;2022-09-27T19:47:23;3.58;;;2.70;;
15192;SDS011;7697;51.630;7.484;2022-09-27T19:52:24;4.05;;;2.67;;
15192;SDS011;7697;51.630;7.484;2022-09-27T19:57:28;4.22;;;3.00;;
15192;SDS011;7697;51.630;7.484;2022-09-27T20:02:29;5.60;;;3.00;;
15192;SDS011;7697;51.630;7.484;2022-09-27T20:07:31;2.95;;;2.50;;
15192;SDS011;7697;51.630;7.484;2022-09-27T20:12:35;4.93;;;3.17;;
15192;SDS011;7697;51.630;7.484;2022-09-27T20:17:37;3.72;;;2.58;;
15192;SDS011;7697;51.630;7.484;2022-09-27T20:22:39;4.35;;;2.65;;
15192;SDS011;7697;51.630;7.484;2022-09-27T20:27:42;3.60;;;2.60;;
15192;SDS011;7697;51.630;7.484;2022-09-27T20:32:43;5.32;;;3.15;;
15192;SDS011;7697;51.630;7.484;2022-09-27T20:38:05;3.85;;;2.83;;
15192;SDS011;7697;51.630;7.484;2022-09-27T20:43:08;6.30;;;3.20;;
15192;SDS011;7697;51.630;7.484;2022-09-27T20:48:10;6.07;;;2.65;;
15192;SDS011;7697;51.630;7.484;2022-09-27T20:53:11;6.13;;;2.90;;
15192;SDS011;7697;51.630;7.484;2022-09-27T20:58:14;5.40;;;3.05;;
15192;SDS011;7697;51.630;7.484;2022-09-27T21:03:16;3.40;;;3.00;;
15192;SDS011;7697;51.630;7.484;2022-09-27T21:08:18;5.07;;;2.90;;
15192;SDS011;7697;51.630;7.484;2022-09-27T21:13:21;5.13;;;3.67;;
15192;SDS011;7697;51.630;7.484;2022-09-27T21:18:23;5.13;;;3.88;;
15192;SDS011;7697;51.630;7.484;2022-09-27T21:23:25;5.43;;;3.50;;
15192;SDS011;7697;51.630;7.484;2022-09-27T21:28:33;4.63;;;3.03;;
15192;SDS011;7697;51.630;7.484;2022-09-27T21:33:36;3.78;;;3.38;;
15192;SDS011;7697;51.630;7.484;2022-09-27T21:38:38;4.60;;;3.45;;
15192;SDS011;7697;51.630;7.484;2022-09-27T21:43:41;4.63;;;3.25;;
15192;SDS011;7697;51.630;7.484;2022-09-27T21:48:45;4.60;;;3.53;;
15192;SDS011;7697;51.630;7.484;2022-09-27T21:53:49;4.60;;;3.33;;
15192;SDS011;7697;51.630;7.484;2022-09-27T21:58:54;4.97;;;3.38;;
15192;SDS011;7697;51.630;7.484;2022-09-27T22:03:56;4.47;;;3.38;;
15192;SDS011;7697;51.630;7.484;2022-09-27T22:08:58;3.33;;;2.92;;
15192;SDS011;7697;51.630;7.484;2022-09-27T22:14:03;4.57;;;3.63;;
15192;SDS011;7697;51.630;7.484;2022-09-27T22:19:06;5.03;;;3.90;;
15192;SDS011;7697;51.630;7.484;2022-09-27T22:24:10;5.57;;;4.60;;
15192;SDS011;7697;51.630;7.484;2022-09-27T22:29:14;6.80;;;3.80;;
15192;SDS011;7697;51.630;7.484;2022-09-27T22:34:16;4.95;;;4.43;;
15192;SDS011;7697;51.630;7.484;2022-09-27T22:39:27;5.97;;;3.70;;
15192;SDS011;7697;51.630;7.484;2022-09-27T22:44:30;4.80;;;3.60;;
15192;SDS011;7697;51.630;7.484;2022-09-27T22:49:33;3.97;;;3.08;;
15192;SDS011;7697;51.630;7.484;2022-09-27T22:54:35;4.28;;;3.55;;
15192;SDS011;7697;51.630;7.484;2022-09-27T22:59:38;5.03;;;3.50;;
15192;SDS011;7697;51.630;7.484;2022-09-27T23:04:40;4.40;;;3.45;;
15192;SDS011;7697;51.630;7.484;2022-09-27T23:09:42;3.10;;;2.58;;
15192;SDS011;7697;51.630;7.484;2022-09-27T23:14:44;3.90;;;2.60;;
15192;SDS011;7697;51.630;7.484;2022-09-27T23:19:46;5.03;;;2.65;;
15192;SDS011;7697;51.630;7.484;2022-09-27T23:24:48;2.42;;;2.22;;
15192;SDS011;7697;51.630;7.484;2022-09-27T23:29:51;2.42;;;2.20;;
15192;SDS011;7697;51.630;7.484;2022-09-27T23:34:52;3.10;;;2.30;;
15192;SDS011;7697;51.630;7.484;2022-09-27T23:39:54;4.00;;;3.25;;
15192;SDS011;7697;51.630;7.484;2022-09-27T23:44:57;3.38;;;3.08;;
15192;SDS011;7697;51.630;7.484;2022-09-27T23:50:00;4.00;;;3.60;;
15192;SDS011;7697;51.630;7.484;2022-09-27T23:55:01;4.68;;;3.97;;
